Decoded Metar for OISY ( in _UNIDENTIFIED) (IATA:N/A) | Meteo·Mobile Aviation Weather
aviador You're here:

OISY Decoded Metar

in _UNIDENTIFIED
Report Time2019-04-25 22:00:00
UTC Time2019-04-25 22:11:24
Flight Rules vfr VFR
WindCalm
Visibility9999 m
Phenomena:N/A
Clouds:N/A
Expected CloudBase > 3,200 ft AGL from Temp-Dew spread
CeilingNone
Temp06°C
Dew Point-2°C (57% RH)
AAT3.8°C
QNH1020 hPa
Raw Report
METAR OISY 252200Z 00000KT CAVOK 06/M02 Q1020=

Extra information for OISY:More info

Metar Taf Metar & Taf Last 4 Metars F.Rules Stats Wind Profile Meteogram Temp Stats Metar ALERT Operation Metar Decoded Social comments